Time;durP1;ratioP1;P1;durP2;ratioP2;P2;SDS_P1;SDS_P2;PMS_P1;PMS_P2;Temp;Humidity;BMP_temperature;BMP_pressure;BME280_temperature;BME280_humidity;BME280_pressure;Samples;Min_cycle;Max_cycle;Signal;HPM_P1;HPM_P2
2022/12/14 00:00:55;;;;;;;34.10;18.05;;;;;;;0.65;100.00;62065.59;4987747;28;20291;-77
2022/12/14 00:03:22;;;;;;;28.95;18.08;;;;;;;0.69;100.00;62071.69;4989714;28;20225;-78
2022/12/14 00:05:51;;;;;;;34.85;19.50;;;;;;;0.64;100.00;62067.06;4990103;28;20244;-76
2022/12/14 00:08:18;;;;;;;31.73;18.35;;;;;;;0.60;100.00;62060.47;4989701;28;20200;-77
2022/12/14 00:10:46;;;;;;;27.63;18.27;;;;;;;0.72;100.00;62069.75;4987449;28;20224;-77
2022/12/14 00:13:15;;;;;;;28.42;16.80;;;;;;;0.80;100.00;62077.97;4990429;28;20267;-77
2022/12/14 00:15:43;;;;;;;28.95;16.88;;;;;;;0.79;100.00;62079.97;4989073;28;20224;-76
2022/12/14 00:18:11;;;;;;;33.53;18.10;;;;;;;0.52;100.00;62059.78;4986261;28;20207;-77
2022/12/14 00:20:38;;;;;;;30.45;17.40;;;;;;;0.40;100.00;62039.47;4971099;28;20224;-77
2022/12/14 00:23:07;;;;;;;33.70;17.45;;;;;;;0.50;100.00;62052.22;4969947;28;20201;-77
2022/12/14 00:25:35;;;;;;;28.95;17.02;;;;;;;0.53;100.00;62053.31;4969244;28;20240;-77
2022/12/14 00:28:03;;;;;;;28.05;16.73;;;;;;;0.50;100.00;62047.72;4979283;28;20218;-77
2022/12/14 00:30:30;;;;;;;28.40;17.80;;;;;;;0.50;100.00;62052.72;4988951;28;20224;-75
2022/12/14 00:32:57;;;;;;;26.33;16.35;;;;;;;0.49;100.00;62054.19;4988773;28;20204;-76
2022/12/14 00:35:24;;;;;;;28.83;16.40;;;;;;;0.57;100.00;62057.38;4990482;28;20279;-75
2022/12/14 00:37:51;;;;;;;26.48;17.02;;;;;;;0.54;100.00;62061.84;4986875;28;20215;-76
2022/12/14 00:40:20;;;;;;;27.40;16.55;;;;;;;0.54;100.00;62053.81;4989628;28;20223;-76
2022/12/14 00:42:48;;;;;;;29.48;17.35;;;;;;;0.47;100.00;62046.63;4990091;28;20219;-76
2022/12/14 00:45:15;;;;;;;33.50;18.77;;;;;;;0.55;100.00;62057.34;4987829;28;20283;-77
2022/12/14 00:47:42;;;;;;;31.10;17.88;;;;;;;0.65;100.00;62067.59;4987958;28;20415;-77
2022/12/14 00:50:09;;;;;;;30.40;17.00;;;;;;;0.76;100.00;62078.88;4990180;28;20223;-78
2022/12/14 00:52:36;;;;;;;28.27;17.80;;;;;;;0.64;100.00;62069.56;4989744;28;20246;-75
2022/12/14 00:55:04;;;;;;;24.38;15.88;;;;;;;0.73;100.00;62078.28;4985655;28;20412;-75
2022/12/14 00:57:32;;;;;;;27.67;16.95;;;;;;;0.69;100.00;62069.69;4989714;28;20235;-78
2022/12/14 00:59:59;;;;;;;25.38;15.38;;;;;;;0.76;100.00;62076.88;4989246;28;20516;-76
2022/12/14 01:02:27;;;;;;;26.15;15.15;;;;;;;0.58;100.00;62063.44;4987139;28;20541;-77
2022/12/14 01:04:54;;;;;;;28.70;16.45;;;;;;;0.54;100.00;62053.81;4989201;28;20233;-77
2022/12/14 01:07:21;;;;;;;30.25;15.52;;;;;;;0.51;100.00;62051.25;4988431;28;20223;-75
2022/12/14 01:09:48;;;;;;;23.88;13.45;;;;;;;0.47;100.00;62049.66;4986984;28;20204;-76
2022/12/14 01:12:15;;;;;;;29.40;15.85;;;;;;;0.53;100.00;62053.31;4989218;28;20528;-77
2022/12/14 01:14:45;;;;;;;25.30;14.95;;;;;;;0.67;100.00;62067.13;4987887;28;20279;-77
2022/12/14 01:17:11;;;;;;;31.45;16.55;;;;;;;0.58;100.00;62057.91;4987668;28;20212;-75
2022/12/14 01:19:38;;;;;;;27.52;15.38;;;;;;;0.64;100.00;62067.06;4990531;28;20239;-76
2022/12/14 01:22:06;;;;;;;26.85;16.33;;;;;;;0.65;100.00;62065.09;4985935;28;20220;-76
2022/12/14 01:24:33;;;;;;;24.95;16.75;;;;;;;0.64;100.00;62069.09;4987044;28;20200;-76
2022/12/14 01:27:00;;;;;;;27.08;16.48;;;;;;;0.66;100.00;62071.63;4989272;28;20275;-74
2022/12/14 01:29:27;;;;;;;28.85;16.80;;;;;;;0.65;100.00;62068.13;4987451;28;20223;-76
2022/12/14 01:31:55;;;;;;;26.08;16.27;;;;;;;0.73;100.00;62081.31;4986437;28;20465;-75
2022/12/14 01:34:22;;;;;;;30.58;17.23;;;;;;;0.66;100.00;62068.59;4990623;28;20203;-76
2022/12/14 01:36:49;;;;;;;31.05;17.83;;;;;;;0.70;100.00;62073.25;4987829;28;20220;-74
2022/12/14 01:39:16;;;;;;;31.42;17.80;;;;;;;0.56;100.00;62055.84;4986776;28;20208;-75
2022/12/14 01:41:46;;;;;;;31.58;18.25;;;;;;;0.65;100.00;62063.09;4987770;28;20224;-76
2022/12/14 01:44:53;;;;;;;30.30;17.08;;;;;;;0.68;100.00;62071.19;4987220;28;20264;-76
2022/12/14 01:47:27;;;;;;;27.70;16.27;;;;;;;0.69;100.00;62069.19;4987890;28;20267;-75
2022/12/14 01:49:59;;;;;;;25.95;15.82;;;;;;;0.67;100.00;62070.16;4986933;28;20267;-76
2022/12/14 01:52:31;;;;;;;23.88;16.13;;;;;;;0.75;100.00;62078.38;4988712;28;20231;-75
2022/12/14 01:55:02;;;;;;;30.38;17.02;;;;;;;0.75;100.00;62075.84;4987069;28;20200;-75
2022/12/14 01:57:34;;;;;;;27.48;16.55;;;;;;;0.78;100.00;62080.91;4985575;28;20200;-76
2022/12/14 02:00:02;;;;;;;26.40;16.85;;;;;;;0.65;100.00;62062.59;4969269;28;20259;-76
2022/12/14 02:02:31;;;;;;;27.20;16.88;;;;;;;0.74;100.00;62077.31;4967383;28;20268;-77
2022/12/14 02:05:02;;;;;;;28.27;16.92;;;;;;;0.82;100.00;62085.03;4968406;28;20501;-75
2022/12/14 02:07:30;;;;;;;24.05;15.98;;;;;;;0.88;100.00;62096.19;4980662;28;20196;-77
2022/12/14 02:10:01;;;;;;;25.35;14.90;;;;;;;0.89;100.00;62092.22;4988309;28;20259;-76
2022/12/14 02:12:32;;;;;;;18.95;13.18;;;;;;;0.80;100.00;62080.97;4987340;28;20224;-76
2022/12/14 02:15:00;;;;;;;22.75;13.77;;;;;;;0.53;100.00;62050.81;4989031;28;20199;-76
2022/12/14 02:17:28;;;;;;;18.17;12.77;;;;;;;0.48;100.00;62053.19;4982248;28;20256;-77
2022/12/14 02:19:58;;;;;;;22.98;13.63;;;;;;;0.63;100.00;62065.53;4986239;28;20247;-76
2022/12/14 02:23:04;;;;;;;19.67;12.25;;;;;;;0.72;100.00;62075.28;4987511;28;20222;-76
2022/12/14 02:25:58;;;;;;;21.58;13.40;;;;;;;0.72;100.00;62075.28;4984873;28;20410;-75
2022/12/14 02:28:50;;;;;;;18.77;12.13;;;;;;;0.58;100.00;62060.41;4986526;28;20200;-76
2022/12/14 02:31:29;;;;;;;18.45;12.13;;;;;;;0.53;100.00;62050.81;4987055;28;20587;-76
2022/12/14 02:34:03;;;;;;;14.60;10.52;;;;;;;0.65;100.00;62063.09;4984464;28;20243;-76
2022/12/14 02:36:39;;;;;;;15.93;10.93;;;;;;;0.40;100.00;62041.97;4987040;28;20231;-76
2022/12/14 02:39:17;;;;;;;15.13;10.45;;;;;;;0.22;100.00;62024.03;4988257;28;20211;-76
2022/12/14 02:41:55;;;;;;;15.63;10.05;;;;;;;0.18;100.00;62017.41;4986100;28;20235;-76
2022/12/14 02:44:32;;;;;;;17.73;10.68;;;;;;;0.11;100.00;62009.72;4986112;28;20200;-75
2022/12/14 02:47:07;;;;;;;12.63;10.18;;;;;;;0.11;100.00;62012.75;4985506;28;20556;-75
2022/12/14 02:49:50;;;;;;;16.48;10.48;;;;;;;-0.02;100.00;61997.44;4986891;28;20199;-75
2022/12/14 02:52:26;;;;;;;17.00;12.02;;;;;;;-0.15;100.00;61988.59;4986199;28;20219;-75
2022/12/14 02:54:58;;;;;;;13.27;10.43;;;;;;;-0.11;100.00;61990.22;4988514;28;20416;-76
2022/12/14 02:57:28;;;;;;;13.80;10.55;;;;;;;0.08;100.00;62009.69;4986634;28;20270;-76
2022/12/14 02:59:59;;;;;;;16.17;9.95;;;;;;;-0.07;100.00;61991.81;4987764;28;20188;-75
2022/12/14 03:02:29;;;;;;;15.30;10.48;;;;;;;-0.22;100.00;61981.44;4983679;28;20232;-76
2022/12/14 03:04:57;;;;;;;13.27;9.18;;;;;;;-0.26;100.00;61972.84;4985187;28;20192;-76
2022/12/14 03:07:39;;;;;;;14.13;9.88;;;;;;;-0.26;100.00;61974.84;4985284;28;20239;-77
2022/12/14 03:10:21;;;;;;;18.20;11.43;;;;;;;-0.39;100.00;61959.53;4984559;28;20243;-75
2022/12/14 03:12:54;;;;;;;17.65;10.85;;;;;;;-0.31;100.00;61972.22;4991064;28;20329;-77
2022/12/14 03:15:25;;;;;;;15.48;10.57;;;;;;;-0.30;100.00;61971.25;4987971;28;20328;-76
2022/12/14 03:18:00;;;;;;;14.90;10.15;;;;;;;-0.34;100.00;61969.13;4990341;28;20580;-75
2022/12/14 03:20:32;;;;;;;15.32;10.32;;;;;;;-0.29;100.00;61972.28;4990756;28;20430;-76
2022/12/14 03:23:04;;;;;;;13.63;9.88;;;;;;;-0.27;100.00;61973.81;4990031;28;20208;-76
2022/12/14 03:25:35;;;;;;;16.83;10.93;;;;;;;-0.18;100.00;61978.53;4989305;28;20231;-75
2022/12/14 03:28:06;;;;;;;16.70;10.48;;;;;;;-0.13;100.00;61993.69;4991666;28;20501;-77
2022/12/14 03:30:36;;;;;;;17.00;11.48;;;;;;;-0.05;100.00;61994.34;4989411;28;20227;-76
2022/12/14 03:33:10;;;;;;;17.42;10.48;;;;;;;0.04;100.00;62005.56;4988100;28;20204;-75
2022/12/14 03:35:49;;;;;;;17.40;9.95;;;;;;;0.05;100.00;62006.09;4989739;28;20224;-76
2022/12/14 03:38:22;;;;;;;15.07;9.98;;;;;;;0.09;100.00;62008.19;4991758;28;20698;-75
2022/12/14 03:40:55;;;;;;;15.18;10.30;;;;;;;0.15;100.00;62019.34;4988703;28;20267;-76
2022/12/14 03:43:31;;;;;;;18.42;10.15;;;;;;;0.16;100.00;62017.88;4990358;28;20231;-75
2022/12/14 03:46:07;;;;;;;13.68;9.45;;;;;;;0.26;100.00;62035.63;4994076;28;20564;-75
2022/12/14 03:48:40;;;;;;;12.73;9.40;;;;;;;0.34;100.00;62038.31;4989864;28;20526;-75
2022/12/14 03:51:14;;;;;;;13.18;8.88;;;;;;;0.38;100.00;62040.41;4987280;28;20220;-76
2022/12/14 03:53:49;;;;;;;12.50;9.77;;;;;;;0.26;100.00;62027.63;4991379;28;20378;-74
2022/12/14 03:56:23;;;;;;;11.75;8.85;;;;;;;0.26;100.00;62028.13;4987772;28;20231;-76
2022/12/14 03:59:01;;;;;;;14.45;8.85;;;;;;;0.29;100.00;62030.69;4989495;28;20205;-76
2022/12/14 04:01:39;;;;;;;14.70;9.35;;;;;;;0.26;100.00;62027.63;4990938;28;20239;-75
2022/12/14 04:04:15;;;;;;;19.50;9.50;;;;;;;0.23;100.00;62019.53;4987719;28;20220;-75
2022/12/14 04:06:50;;;;;;;12.95;9.13;;;;;;;0.29;100.00;62031.22;4988887;28;20266;-76
2022/12/14 04:09:26;;;;;;;10.10;8.70;;;;;;;0.30;100.00;62029.19;4990101;28;20204;-76
2022/12/14 04:20:26;;;;;;;12.93;8.40;;;;;;;0.28;100.00;62027.16;4988352;28;20280;-75
2022/12/14 04:23:02;;;;;;;12.00;6.90;;;;;;;0.26;100.00;62025.63;4988375;28;20203;-76
2022/12/14 04:31:10;;;;;;;9.30;7.57;;;;;;;0.10;100.00;62014.22;4970230;29;20214;-77
2022/12/14 04:33:46;;;;;;;8.77;7.63;;;;;;;0.14;100.00;62010.81;4982301;28;20215;-75
2022/12/14 04:36:20;;;;;;;9.40;7.65;;;;;;;0.03;100.00;62004.56;4987739;28;20266;-75
2022/12/14 04:38:51;;;;;;;11.65;7.82;;;;;;;0.14;100.00;62013.31;4989297;28;20246;-74
2022/12/14 04:41:22;;;;;;;9.07;7.43;;;;;;;0.12;100.00;62011.28;4989559;28;20220;-75
2022/12/14 04:43:54;;;;;;;9.60;7.20;;;;;;;0.11;100.00;62010.25;4987945;28;20223;-76
2022/12/14 04:46:25;;;;;;;11.02;7.38;;;;;;;0.01;100.00;62005.00;4987006;28;20268;-76
2022/12/14 04:49:01;;;;;;;9.32;7.55;;;;;;;-0.13;100.00;61988.66;4988783;28;20196;-76
2022/12/14 04:51:33;;;;;;;10.30;7.65;;;;;;;0.10;100.00;62016.22;4989396;28;20270;-76
2022/12/14 04:54:06;;;;;;;9.93;7.82;;;;;;;0.09;100.00;62010.19;4989969;28;20242;-76
2022/12/14 04:56:40;;;;;;;10.48;8.05;;;;;;;-0.10;100.00;61989.25;4987719;28;20227;-75
2022/12/14 04:59:07;;;;;;;7.75;6.90;;;;;;;-0.09;100.00;61992.75;4988063;28;20223;-75
2022/12/14 05:01:46;;;;;;;11.43;8.43;;;;;;;0.03;100.00;62001.53;4988446;28;20564;-75
2022/12/14 05:04:21;;;;;;;9.52;7.68;;;;;;;-0.05;100.00;61996.34;4986333;28;20537;-77
2022/12/14 05:07:02;;;;;;;10.40;7.55;;;;;;;0.04;100.00;62008.06;4988680;28;20235;-76
2022/12/14 05:09:35;;;;;;;12.38;8.13;;;;;;;0.03;100.00;62002.56;4990151;28;20228;-76
2022/12/14 05:12:07;;;;;;;10.63;8.02;;;;;;;0.07;100.00;62008.63;4985619;28;20548;-76
2022/12/14 05:14:39;;;;;;;12.60;7.75;;;;;;;0.09;100.00;62012.69;4988260;28;20196;-74
2022/12/14 05:17:07;;;;;;;8.80;6.65;;;;;;;0.27;100.00;62026.13;4989900;28;20231;-75
2022/12/14 05:19:34;;;;;;;9.40;7.38;;;;;;;0.27;100.00;62026.66;4986231;28;20200;-76
2022/12/14 05:22:06;;;;;;;8.48;6.68;;;;;;;0.27;100.00;62028.63;4987356;28;20224;-74
2022/12/14 05:24:34;;;;;;;10.23;6.65;;;;;;;0.31;100.00;62035.75;4990333;28;20536;-75
2022/12/14 05:27:01;;;;;;;8.15;6.55;;;;;;;0.32;100.00;62033.75;4983866;28;20235;-75
2022/12/14 05:29:28;;;;;;;8.82;7.00;;;;;;;0.28;100.00;62029.66;4985767;28;20196;-76
2022/12/14 05:31:55;;;;;;;7.50;6.30;;;;;;;0.32;100.00;62034.28;4987262;28;20448;-75
2022/12/14 05:34:22;;;;;;;9.85;7.28;;;;;;;0.35;100.00;62037.34;4986993;28;20392;-77
2022/12/14 05:36:49;;;;;;;13.98;8.27;;;;;;;0.34;100.00;62036.31;4986436;28;20223;-77
2022/12/14 05:39:18;;;;;;;11.13;8.32;;;;;;;0.32;100.00;62034.28;4990809;28;20200;-77
2022/12/14 05:41:44;;;;;;;11.32;8.68;;;;;;;0.32;100.00;62031.25;4985838;28;20224;-76
2022/12/14 05:44:11;;;;;;;10.75;7.93;;;;;;;0.34;100.00;62033.81;4987664;28;20247;-77
2022/12/14 05:46:38;;;;;;;10.85;8.27;;;;;;;0.15;100.00;62016.84;4986791;28;20335;-76
2022/12/14 05:49:05;;;;;;;9.02;8.05;;;;;;;0.06;100.00;62010.13;4987745;28;20200;-77
2022/12/14 05:51:33;;;;;;;7.20;6.50;;;;;;;-0.09;100.00;61995.25;4987037;28;20224;-76
2022/12/14 05:53:59;;;;;;;8.15;6.43;;;;;;;-0.11;100.00;61990.72;4987538;28;20250;-76
2022/12/14 05:56:28;;;;;;;9.77;8.07;;;;;;;-0.05;100.00;61998.84;4987664;28;20228;-74
2022/12/14 05:58:55;;;;;;;7.50;6.68;;;;;;;-0.11;100.00;61990.22;4985009;28;20212;-76
2022/12/14 06:01:22;;;;;;;7.53;6.72;;;;;;;-0.06;100.00;61995.31;4988514;28;20533;-76
2022/12/14 06:03:52;;;;;;;6.95;6.25;;;;;;;-0.08;100.00;61988.78;4987115;28;20271;-76
2022/12/14 06:06:20;;;;;;;8.68;7.55;;;;;;;0.07;100.00;62005.63;4985960;28;20362;-75
2022/12/14 06:08:47;;;;;;;8.82;6.78;;;;;;;0.01;100.00;62007.50;4988844;28;20227;-76
2022/12/14 06:11:16;;;;;;;11.65;7.75;;;;;;;-0.01;100.00;61997.94;4987068;28;20278;-74
2022/12/14 06:13:45;;;;;;;12.80;7.05;;;;;;;0.07;100.00;62006.13;4985701;28;20208;-76
2022/12/14 06:16:14;;;;;;;10.25;8.23;;;;;;;-0.02;100.00;61999.44;4987353;28;20236;-75
2022/12/14 06:18:43;;;;;;;9.27;7.95;;;;;;;-0.01;100.00;62000.44;4986445;28;20263;-77
2022/12/14 06:21:10;;;;;;;10.40;8.85;;;;;;;0.06;100.00;62007.63;4986795;28;20231;-75
2022/12/14 06:23:37;;;;;;;9.88;8.88;;;;;;;-0.03;100.00;61996.41;4990321;28;20276;-76
2022/12/14 06:26:04;;;;;;;10.90;8.70;;;;;;;-0.08;100.00;61990.78;4985206;28;20231;-75
2022/12/14 06:28:31;;;;;;;11.45;9.02;;;;;;;-0.05;100.00;61999.38;4986831;28;20284;-75
2022/12/14 06:31:00;;;;;;;10.32;7.90;;;;;;;0.06;100.00;62007.09;4988478;28;20247;-75
2022/12/14 06:33:27;;;;;;;11.63;8.50;;;;;;;0.06;100.00;62005.13;4988733;28;20204;-76
2022/12/14 06:35:54;;;;;;;9.30;8.32;;;;;;;0.14;100.00;62015.31;4985969;28;20230;-74
2022/12/14 06:38:21;;;;;;;10.68;8.35;;;;;;;0.02;100.00;62003.53;4988824;28;20266;-75
2022/12/14 06:40:48;;;;;;;11.27;9.18;;;;;;;-0.14;100.00;61982.13;4991364;28;20410;-75
2022/12/14 06:43:15;;;;;;;12.23;8.93;;;;;;;-0.22;100.00;61978.94;4983778;28;20227;-75
2022/12/14 06:45:42;;;;;;;11.18;8.27;;;;;;;-0.13;100.00;61985.66;4985745;28;20290;-75
2022/12/14 06:48:11;;;;;;;12.75;9.30;;;;;;;-0.22;100.00;61978.94;4986167;28;20236;-75
2022/12/14 06:50:38;;;;;;;18.42;9.52;;;;;;;-0.26;100.00;61977.84;4987057;28;20226;-75
2022/12/14 06:53:05;;;;;;;12.75;8.75;;;;;;;-0.35;100.00;61960.63;4986237;28;20204;-75
2022/12/14 06:55:32;;;;;;;11.90;9.52;;;;;;;-0.37;100.00;61961.59;4987897;28;20212;-75
2022/12/14 06:57:59;;;;;;;10.68;8.75;;;;;;;-0.21;100.00;61977.97;4986052;28;20200;-76
2022/12/14 07:00:27;;;;;;;12.25;9.77;;;;;;;-0.31;100.00;61967.22;4987036;28;20396;-76
2022/12/14 07:02:53;;;;;;;11.23;9.85;;;;;;;-0.19;100.00;61982.50;4987656;28;20255;-76
2022/12/14 07:05:36;;;;;;;13.65;10.20;;;;;;;-0.19;100.00;61984.50;4987372;28;20196;-75
2022/12/14 07:08:03;;;;;;;16.50;10.00;;;;;;;-0.07;100.00;61994.31;4968889;28;20236;-77
2022/12/14 07:10:30;;;;;;;14.23;10.85;;;;;;;-0.03;100.00;61998.91;4966726;28;20299;-77
2022/12/14 07:12:57;;;;;;;17.17;11.93;;;;;;;0.06;100.00;62004.59;4966294;28;20247;-76
2022/12/14 07:15:24;;;;;;;13.90;10.98;;;;;;;0.08;100.00;62009.69;4966333;28;20594;-76
2022/12/14 07:17:51;;;;;;;14.05;11.43;;;;;;;0.17;100.00;62015.88;4969296;28;20207;-75
2022/12/14 07:20:21;;;;;;;12.82;11.05;;;;;;;0.35;100.00;62036.81;4965639;28;20441;-76
2022/12/14 07:22:49;;;;;;;14.80;10.77;;;;;;;0.44;100.00;62048.56;4948222;29;20208;-77
2022/12/14 07:25:16;;;;;;;13.07;10.05;;;;;;;0.46;100.00;62050.63;4961986;28;20201;-78
2022/12/14 07:27:43;;;;;;;14.68;10.23;;;;;;;0.51;100.00;62053.25;4967349;28;20256;-78
2022/12/14 07:30:11;;;;;;;11.65;10.45;;;;;;;0.57;100.00;62062.41;4968222;28;20209;-77
2022/12/14 07:32:38;;;;;;;13.45;9.95;;;;;;;0.56;100.00;62061.38;4964756;29;20197;-76
2022/12/14 07:35:06;;;;;;;13.38;9.73;;;;;;;0.50;100.00;62055.22;4969367;28;20235;-76
2022/12/14 07:37:33;;;;;;;13.85;10.70;;;;;;;0.67;100.00;62067.66;4966390;28;20201;-76
2022/12/14 07:40:02;;;;;;;15.45;10.15;;;;;;;0.47;100.00;62049.66;4969047;28;20204;-76
2022/12/14 07:42:29;;;;;;;11.85;9.77;;;;;;;0.56;100.00;62063.38;4966527;28;20209;-77
2022/12/14 07:44:57;;;;;;;14.32;10.00;;;;;;;0.72;100.00;62072.78;4964901;28;20197;-77
2022/12/14 07:47:24;;;;;;;15.07;11.77;;;;;;;0.66;100.00;62066.09;4966422;29;20244;-76
2022/12/14 07:49:50;;;;;;;16.67;12.35;;;;;;;0.76;100.00;62081.38;4968040;28;20225;-76
2022/12/14 07:52:18;;;;;;;23.48;14.30;;;;;;;0.80;100.00;62087.97;4964032;28;20264;-76
2022/12/14 07:54:45;;;;;;;20.70;13.80;;;;;;;0.88;100.00;62089.19;4966338;28;20267;-76
2022/12/14 07:57:13;;;;;;;15.65;11.85;;;;;;;0.59;100.00;62061.94;4965957;28;20564;-77
2022/12/14 07:59:40;;;;;;;15.50;11.48;;;;;;;0.66;100.00;62068.59;4966073;28;20267;-77
2022/12/14 08:02:12;;;;;;;14.65;11.30;;;;;;;0.70;100.00;62073.25;4969690;28;20232;-75
2022/12/14 08:04:38;;;;;;;19.48;10.82;;;;;;;0.81;100.00;62084.50;4966368;28;20209;-75
2022/12/14 08:07:05;;;;;;;11.40;10.25;;;;;;;0.90;100.00;62093.22;4969526;28;20256;-76
2022/12/14 08:09:35;;;;;;;16.58;11.30;;;;;;;0.95;100.00;62101.38;4966134;29;20223;-75
2022/12/14 08:12:02;;;;;;;18.00;12.07;;;;;;;1.04;100.00;62108.09;4965453;29;20232;-76
2022/12/14 08:14:31;;;;;;;14.63;10.90;;;;;;;0.91;100.00;62099.28;4966303;29;20209;-77
2022/12/14 08:16:57;;;;;;;13.45;10.52;;;;;;;0.98;100.00;62099.44;4970663;28;20228;-76
2022/12/14 08:19:24;;;;;;;12.82;10.00;;;;;;;0.98;100.00;62101.94;4963083;29;20204;-76
2022/12/14 08:21:51;;;;;;;14.32;11.07;;;;;;;0.97;100.00;62103.44;4965208;28;20442;-76
2022/12/14 08:24:18;;;;;;;11.75;9.32;;;;;;;0.96;100.00;62096.88;4966576;28;20397;-77
2022/12/14 08:26:45;;;;;;;15.50;10.95;;;;;;;0.91;100.00;62094.25;4964865;28;20264;-77
2022/12/14 08:29:13;;;;;;;16.02;11.25;;;;;;;1.15;100.00;62123.91;4967086;29;20215;-76
2022/12/14 08:31:41;;;;;;;14.80;11.98;;;;;;;1.31;100.00;62132.28;4965909;28;20220;-75
2022/12/14 08:34:08;;;;;;;13.38;11.45;;;;;;;1.27;100.00;62130.66;4965242;28;20212;-75
2022/12/14 08:36:35;;;;;;;15.05;10.80;;;;;;;1.45;100.00;62151.66;4961019;29;20292;-75
2022/12/14 08:39:04;;;;;;;15.38;11.45;;;;;;;1.33;100.00;62136.84;4966086;29;20218;-75
2022/12/14 08:41:32;;;;;;;14.23;10.23;;;;;;;1.44;100.00;62148.13;4965775;28;20248;-75
2022/12/14 08:44:00;;;;;;;16.20;11.10;;;;;;;1.47;100.00;62148.69;4967969;28;20200;-75
2022/12/14 08:46:29;;;;;;;15.32;10.73;;;;;;;1.30;100.00;62133.75;4969146;28;20228;-76
2022/12/14 08:48:58;;;;;;;14.10;10.15;;;;;;;1.25;100.00;62128.63;4950043;29;20596;-75
2022/12/14 08:51:27;;;;;;;12.82;10.05;;;;;;;0.94;100.00;62097.84;4952735;29;20282;-75
2022/12/14 08:53:55;;;;;;;15.40;10.90;;;;;;;0.94;100.00;62095.34;4960568;29;20193;-74
2022/12/14 08:56:24;;;;;;;14.77;10.18;;;;;;;0.94;100.00;62095.34;4966999;28;20235;-75
2022/12/14 08:58:52;;;;;;;12.07;9.98;;;;;;;1.22;100.00;62125.53;4952600;29;20225;-74
2022/12/14 09:01:21;;;;;;;15.98;11.02;;;;;;;1.17;100.00;62123.94;4958563;29;20454;-75
2022/12/14 09:03:49;;;;;;;12.18;9.57;;;;;;;1.22;100.00;62126.06;4966323;28;20428;-76
2022/12/14 09:06:19;;;;;;;22.60;14.30;;;;;;;1.40;100.00;62144.53;4969664;28;20252;-75
2022/12/14 09:08:47;;;;;;;15.27;11.32;;;;;;;1.56;100.00;62158.44;4968613;28;20416;-74
2022/12/14 09:11:15;;;;;;;15.82;10.02;;;;;;;1.60;100.00;62162.53;4967379;28;20255;-75
2022/12/14 09:13:43;;;;;;;13.52;9.75;;;;;;;1.63;100.00;62168.13;4969628;28;20203;-76
2022/12/14 09:16:13;;;;;;;13.82;9.27;;;;;;;1.57;100.00;62159.44;4969260;28;20221;-76
2022/12/14 09:18:40;;;;;;;9.88;8.75;;;;;;;1.69;100.00;62174.28;4968265;28;20252;-75
2022/12/14 09:21:08;;;;;;;12.55;9.38;;;;;;;1.71;100.00;62171.31;4968127;28;20245;-76
2022/12/14 09:23:37;;;;;;;15.15;10.45;;;;;;;1.89;100.00;62197.34;4969315;28;20197;-75
2022/12/14 09:26:06;;;;;;;14.18;9.60;;;;;;;1.74;100.00;62178.91;4968414;28;20224;-75
2022/12/14 09:28:35;;;;;;;11.43;8.85;;;;;;;1.76;100.00;62183.47;4969786;28;20240;-75
2022/12/14 09:31:04;;;;;;;11.18;8.93;;;;;;;1.83;100.00;62193.69;4968102;28;20268;-76
2022/12/14 09:33:32;;;;;;;14.05;10.57;;;;;;;1.97;100.00;62205.03;4967111;28;20400;-76
2022/12/14 09:36:03;;;;;;;17.15;10.35;;;;;;;1.99;100.00;62209.59;4969854;28;20259;-76
2022/12/14 09:38:31;;;;;;;15.45;11.32;;;;;;;2.00;100.00;62203.59;4967808;28;20212;-75
2022/12/14 09:41:03;;;;;;;12.90;9.77;;;;;;;2.08;100.00;62219.34;4967338;28;20533;-76
2022/12/14 09:43:37;;;;;;;12.55;9.48;;;;;;;1.99;100.00;62204.56;4968211;28;20205;-75
2022/12/14 09:46:18;;;;;;;15.25;9.85;;;;;;;2.19;100.00;62225.63;4966388;29;20223;-76
2022/12/14 09:48:46;;;;;;;13.95;10.02;;;;;;;2.29;100.00;62235.38;4966631;29;20307;-76
2022/12/14 09:51:16;;;;;;;15.30;9.45;;;;;;;2.28;100.00;62234.34;4965710;28;20326;-76
2022/12/14 09:53:49;;;;;;;15.63;10.00;;;;;;;2.28;100.00;62231.84;4966839;28;20219;-76
2022/12/14 09:56:19;;;;;;;14.25;9.45;;;;;;;2.26;100.00;62230.28;4965833;28;20228;-75
2022/12/14 09:58:53;;;;;;;15.65;9.48;;;;;;;2.20;100.00;62226.13;4969235;28;20212;-75
2022/12/14 10:01:41;;;;;;;11.65;9.10;;;;;;;2.30;100.00;62234.41;4966019;29;20513;-74
2022/12/14 10:04:19;;;;;;;10.18;8.32;;;;;;;2.17;100.00;62226.06;4955227;29;20204;-74
2022/12/14 10:06:54;;;;;;;13.10;8.57;;;;;;;2.19;100.00;62225.13;4968539;28;20231;-75
2022/12/14 10:09:33;;;;;;;11.18;8.85;;;;;;;2.02;100.00;62207.66;4967018;28;20408;-76
2022/12/14 10:12:14;;;;;;;14.05;7.97;;;;;;;2.07;100.00;62220.81;4965273;28;20228;-74
2022/12/14 10:14:57;;;;;;;13.15;7.82;;;;;;;2.00;100.00;62206.09;4965240;28;20212;-75
2022/12/14 10:17:42;;;;;;;12.02;8.43;;;;;;;2.08;100.00;62208.78;4968534;28;20597;-73
2022/12/14 10:20:20;;;;;;;12.05;7.88;;;;;;;2.05;100.00;62210.75;4965363;28;20220;-74
2022/12/14 10:22:51;;;;;;;15.82;8.00;;;;;;;1.96;100.00;62201.50;4965598;28;20240;-75
2022/12/14 10:25:22;;;;;;;10.18;8.88;;;;;;;2.04;100.00;62215.25;4966903;28;20204;-75
2022/12/14 10:27:56;;;;;;;10.63;8.75;;;;;;;1.94;100.00;62197.44;4967113;28;20259;-77
2022/12/14 10:30:23;;;;;;;21.52;8.50;;;;;;;2.01;100.00;62209.13;4967599;28;20197;-75
2022/12/14 10:32:53;;;;;;;28.10;15.07;;;;;;;2.19;100.00;62228.13;4969811;28;20549;-74
2022/12/14 10:35:28;;;;;;;52.70;24.80;;;;;;;2.38;100.00;62244.13;4965840;28;20200;-74
2022/12/14 10:38:05;;;;;;;12.32;8.52;;;;;;;2.68;100.00;62272.94;4963392;28;20207;-76
2022/12/14 10:40:33;;;;;;;18.00;10.80;;;;;;;2.88;100.00;62298.50;4963276;29;20220;-74
2022/12/14 10:43:15;;;;;;;15.05;9.90;;;;;;;2.78;100.00;62288.22;4964130;29;20359;-75
2022/12/14 10:45:48;;;;;;;10.10;6.72;;;;;;;2.96;100.00;62301.19;4959685;29;20248;-75
2022/12/14 10:48:32;;;;;;;15.25;8.05;;;;;;;2.91;100.00;62293.53;4967758;28;20232;-73
2022/12/14 10:51:03;;;;;;;7.70;6.40;;;;;;;2.69;100.00;62278.47;4965460;28;20385;-75
2022/12/14 10:53:37;;;;;;;7.85;6.45;;;;;;;2.79;100.00;62291.78;4965538;28;20509;-75
2022/12/14 10:56:10;;;;;;;6.80;6.07;;;;;;;2.62;100.00;62271.81;4966644;28;20489;-74
2022/12/14 10:58:39;;;;;;;6.35;5.75;;;;;;;2.61;100.00;62265.22;4968276;28;20204;-76
2022/12/14 11:01:11;;;;;;;7.32;5.95;;;;;;;2.78;100.00;62288.22;4964540;28;20220;-73
2022/12/14 11:03:39;;;;;;;10.82;6.35;;;;;;;2.98;100.00;62305.75;4965593;28;20431;-74
2022/12/14 11:06:14;;;;;;;10.35;6.97;;;;;;;3.04;100.00;62311.91;4966609;29;20224;-74
2022/12/14 11:08:44;;;;;;;8.25;6.57;;;;;;;2.98;100.00;62306.28;4967678;28;20242;-74
2022/12/14 11:11:15;;;;;;;7.60;6.07;;;;;;;2.75;100.00;62282.63;4964602;28;20228;-73
2022/12/14 11:13:51;;;;;;;9.70;6.45;;;;;;;2.91;100.00;62296.03;4965607;28;20204;-76
2022/12/14 11:16:24;;;;;;;6.63;5.82;;;;;;;2.85;100.00;62292.38;4967629;29;20224;-75
2022/12/14 11:19:00;;;;;;;6.90;5.45;;;;;;;2.49;100.00;62252.88;4966904;28;20200;-75
2022/12/14 11:21:32;;;;;;;7.53;5.65;;;;;;;2.41;100.00;62247.19;4966097;28;20228;-75
2022/12/14 11:24:00;;;;;;;5.97;5.25;;;;;;;2.58;100.00;62267.16;4965370;29;20201;-74
2022/12/14 11:26:32;;;;;;;5.82;5.18;;;;;;;2.64;100.00;62270.81;4963989;28;20592;-75
2022/12/14 11:29:01;;;;;;;5.88;4.70;;;;;;;2.47;100.00;62253.38;4963835;28;20276;-75
2022/12/14 11:31:34;;;;;;;6.10;5.45;;;;;;;2.65;100.00;62272.38;4966160;28;20225;-75
2022/12/14 11:34:03;;;;;;;7.03;5.88;;;;;;;2.72;100.00;62276.53;4969603;28;20528;-74
2022/12/14 11:36:34;;;;;;;6.60;5.53;;;;;;;2.61;100.00;62267.72;4969254;28;20357;-76
2022/12/14 11:39:04;;;;;;;6.07;5.57;;;;;;;2.68;100.00;62275.44;4963893;28;20208;-75
2022/12/14 11:41:34;;;;;;;5.95;5.15;;;;;;;2.95;100.00;62302.69;4969609;28;20236;-75
2022/12/14 11:44:06;;;;;;;7.00;5.70;;;;;;;3.14;100.00;62320.19;4970531;28;20205;-74
2022/12/14 11:46:44;;;;;;;5.43;4.93;;;;;;;3.24;100.00;62332.47;4970270;28;20453;-76
2022/12/14 11:49:27;;;;;;;7.55;5.90;;;;;;;3.17;100.00;62325.28;4970166;28;20580;-78
2022/12/14 11:52:00;;;;;;;7.57;6.55;;;;;;;2.98;100.00;62308.28;4956178;29;20220;-76